This is the latest recevied weather packets stored in our database for station/object OK2ILA-6. If no packets are shown the sender has not sent any weather packets the latest 10 day(s).
| Time | Temp. | Humidity | Pressure | Rain* | Wind** | Luminosity | Snow |
|---|---|---|---|---|---|---|---|
| 1777674603 | 8.33° C | 78% | 1024.7 hPa | - | - | - | - |
| 1777674003 | 8.89° C | 78% | 1024.7 hPa | - | - | - | - |
| 1777673403 | 8.89° C | 77% | 1024.8 hPa | - | - | - | - |
| 1777672803 | 8.89° C | 77% | 1024.8 hPa | - | - | - | - |
| 1777672203 | 8.89° C | 77% | 1024.8 hPa | - | - | - | - |
| 1777671603 | 8.89° C | 77% | 1024.7 hPa | - | - | - | - |
| 1777671002 | 8.89° C | 76% | 1024.7 hPa | - | - | - | - |
| 1777670403 | 9.44° C | 76% | 1024.6 hPa | - | - | - | - |
| 1777669803 | 10° C | 74% | 1024.7 hPa | - | - | - | - |
| 1777669203 | 10° C | 74% | 1024.7 hPa | - | - | - | - |
| 1777668603 | 10° C | 74% | 1024.7 hPa | - | - | - | - |
| 1777668002 | 10.56° C | 72% | 1024.7 hPa | - | - | - | - |
| 1777667403 | 10.56° C | 73% | 1024.6 hPa | - | - | - | - |
| 1777666803 | 11.11° C | 73% | 1024.6 hPa | - | - | - | - |
| 1777666203 | 11.11° C | 70% | 1024.6 hPa | - | - | - | - |
| 1777665603 | 11.67° C | 68% | 1024.5 hPa | - | - | - | - |
| 1777665002 | 12.22° C | 68% | 1024.4 hPa | - | - | - | - |
| 1777664403 | 12.22° C | 68% | 1024.4 hPa | - | - | - | - |
| 1777663803 | 12.22° C | 69% | 1024.3 hPa | - | - | - | - |
| 1777663203 | 12.22° C | 67% | 1024.4 hPa | - | - | - | - |
| 1777662603 | 13.33° C | 64% | 1024.2 hPa | - | - | - | - |
| 1777662002 | 14.44° C | 59% | 1024 hPa | - | - | - | - |
| 1777661403 | 15.56° C | 55% | 1024 hPa | - | - | - | - |
| 1777660803 | 15.56° C | 52% | 1024 hPa | - | - | - | - |
| 1777660203 | 16.67° C | 50% | 1023.9 hPa | - | - | - | - |
* Rain since midnight (hover to see other rain measurements)
** Current wind speed in m/s (hover to see current wind gust speed)